This is the latest recevied weather packets stored in our database for station/object GW1476. If no packets are shown the sender has not sent any weather packets the latest 10 day(s).
| Time | Temp. | Humidity | Pressure | Rain* | Wind** | Luminosity | Snow |
|---|---|---|---|---|---|---|---|
| 1777932196 | 28.33° C | 47% | 1011.5 hPa | 0 mm | - | - | - |
| 1777929328 | 27.22° C | 48% | 1012.1 hPa | 0 mm | - | - | - |
| 1777928990 | 26.67° C | 51% | 1011.8 hPa | 0 mm | - | - | - |
| 1777927172 | 26.11° C | 53% | 1012.1 hPa | 0 mm | - | - | - |
| 1777925741 | 25.56° C | 54% | 1012.5 hPa | 0 mm | - | - | - |
| 1777923576 | 23.89° C | 63% | 1013.2 hPa | 0 mm | - | - | - |
| 1777922842 | 22.22° C | 70% | 1013.8 hPa | 0 mm | - | - | - |
| 1777921789 | 20.56° C | 71% | 1014.2 hPa | 0 mm | - | - | - |
| 1777921053 | 21.67° C | 60% | 1014.5 hPa | 0 mm | - | - | - |
| 1777920335 | 22.22° C | 61% | 1013.8 hPa | 0 mm | - | - | - |
| 1777917800 | 24.44° C | 54% | 1013.5 hPa | 0 mm | - | - | - |
| 1777917468 | 24.44° C | 55% | 1013.5 hPa | 0 mm | - | - | - |
| 1777915633 | 23.33° C | 55% | 1014.2 hPa | 0 mm | - | - | - |
| 1777913498 | 21.67° C | 64% | 1014.9 hPa | 0 mm | - | - | - |
| 1777911690 | 18.33° C | 72% | 1015.5 hPa | 0 mm | - | - | - |
| 1777911312 | 18.33° C | 72% | 1015.9 hPa | 0 mm | - | - | - |
| 1777910082 | 18.33° C | 72% | 1016.2 hPa | 0 mm | - | - | - |
| 1777908269 | 20° C | 66% | 1016.5 hPa | 0 mm | - | - | - |
| 1777907533 | 19.44° C | 67% | 1016.5 hPa | 0 mm | - | - | - |
| 1777906483 | 18.33° C | 70% | 1016.5 hPa | 0 mm | - | - | - |
| 1777903613 | 16.11° C | 69% | 1016.9 hPa | 0 mm | - | - | - |
| 1777902870 | 16.11° C | 70% | 1016.5 hPa | 0 mm | - | - | - |
| 1777902163 | 15.56° C | 69% | 1016.9 hPa | 0 mm | - | - | - |
| 1777898905 | 10° C | 88% | 1016.9 hPa | 0 mm | - | - | - |
| 1777896405 | 8.89° C | 92% | 1016.9 hPa | 0 mm | - | - | - |
* Rain since midnight (hover to see other rain measurements)
** Current wind speed in m/s (hover to see current wind gust speed)